createdAt,value
2023-04-14T00:00:06.901Z,2.32
2023-04-14T00:02:41.198Z,2.32
2023-04-14T00:05:12.527Z,2.36
2023-04-14T00:07:41.102Z,2.38
2023-04-14T00:10:09.920Z,2.40
2023-04-14T00:12:38.221Z,2.41
2023-04-14T00:15:07.944Z,2.43
2023-04-14T00:17:36.581Z,2.43
2023-04-14T00:20:05.352Z,2.46
2023-04-14T00:22:35.376Z,2.49
2023-04-14T00:25:03.890Z,2.51
2023-04-14T00:27:32.237Z,2.53
2023-04-14T00:30:00.608Z,2.55
2023-04-14T00:32:28.966Z,2.55
2023-04-14T00:34:57.607Z,2.55
2023-04-14T00:37:25.991Z,2.59
2023-04-14T00:39:55.850Z,2.59
2023-04-14T00:42:24.162Z,2.60
2023-04-14T00:44:52.364Z,2.60
2023-04-14T00:47:23.042Z,2.63
2023-04-14T00:49:52.276Z,2.62
2023-04-14T00:52:23.883Z,2.60
2023-04-14T00:54:52.541Z,2.58
2023-04-14T00:57:22.827Z,2.55
2023-04-14T00:59:51.671Z,2.54
2023-04-14T01:02:20.241Z,2.53
2023-04-14T01:04:54.661Z,2.52
2023-04-14T01:07:25.609Z,2.49
2023-04-14T01:09:54.689Z,2.48
2023-04-14T01:12:34.513Z,2.45
2023-04-14T01:15:13.358Z,2.44
2023-04-14T01:17:47.256Z,2.45
2023-04-14T01:20:28.681Z,2.46
2023-04-14T01:23:05.813Z,2.48
2023-04-14T01:26:07.449Z,2.47
2023-04-14T01:28:49.552Z,2.45
2023-04-14T01:31:37.592Z,2.42
2023-04-14T01:34:14.491Z,2.36
2023-04-14T01:36:46.466Z,2.29
2023-04-14T01:39:22.661Z,2.25
2023-04-14T01:41:58.279Z,2.23
2023-04-14T01:44:28.255Z,2.20
2023-04-14T01:47:03.594Z,2.21
2023-04-14T01:49:36.870Z,2.22
2023-04-14T01:52:09.268Z,2.23
2023-04-14T01:54:41.600Z,2.25
2023-04-14T01:57:12.672Z,2.27
2023-04-14T01:59:43.570Z,2.29
2023-04-14T02:02:17.128Z,2.32
2023-04-14T02:04:46.989Z,2.36
2023-04-14T02:07:16.933Z,2.40
2023-04-14T02:09:46.937Z,2.44
2023-04-14T02:12:15.953Z,2.47
2023-04-14T02:14:46.931Z,2.48
2023-04-14T02:17:20.051Z,2.49
2023-04-14T02:19:49.565Z,2.51
2023-04-14T02:22:18.167Z,2.52
2023-04-14T02:24:47.707Z,2.53
2023-04-14T02:27:19.715Z,2.54
2023-04-14T02:29:53.928Z,2.55
2023-04-14T02:32:29.049Z,2.54
2023-04-14T02:35:02.258Z,2.56
2023-04-14T02:37:37.666Z,2.58
2023-04-14T02:40:14.629Z,2.63
2023-04-14T02:42:48.283Z,2.66
2023-04-14T02:45:22.612Z,2.68
2023-04-14T02:47:56.595Z,2.71
2023-04-14T02:50:27.964Z,2.72
2023-04-14T02:53:08.268Z,2.73
2023-04-14T02:55:39.202Z,2.74
2023-04-14T02:58:08.494Z,2.73
2023-04-14T03:00:41.421Z,2.72
2023-04-14T03:03:13.819Z,2.72
2023-04-14T03:05:43.562Z,2.71
2023-04-14T03:08:13.386Z,2.73
2023-04-14T03:10:46.865Z,2.75
2023-04-14T03:13:19.641Z,2.76
2023-04-14T03:15:50.299Z,2.79
2023-04-14T03:18:22.161Z,2.82
2023-04-14T03:20:55.953Z,2.82
2023-04-14T03:23:27.310Z,2.82
2023-04-14T03:26:01.857Z,2.85
2023-04-14T03:28:37.068Z,2.88
2023-04-14T03:31:09.456Z,2.88
2023-04-14T03:33:48.417Z,2.90
2023-04-14T03:36:19.640Z,2.91
2023-04-14T03:38:58.058Z,2.89
2023-04-14T03:41:40.061Z,2.86
2023-04-14T03:44:15.864Z,2.84
2023-04-14T03:46:49.412Z,2.80
2023-04-14T03:49:21.402Z,2.77
2023-04-14T03:51:53.682Z,2.73
2023-04-14T03:54:25.544Z,2.70
2023-04-14T03:56:57.025Z,2.65
2023-04-14T03:59:29.015Z,2.59
2023-04-14T04:01:59.150Z,2.56
2023-04-14T04:04:31.365Z,2.51
2023-04-14T04:07:00.946Z,2.46
2023-04-14T04:09:31.130Z,2.44
2023-04-14T04:12:02.536Z,2.41
2023-04-14T04:14:34.029Z,2.39
2023-04-14T04:17:07.365Z,2.36
2023-04-14T04:19:38.354Z,2.33
2023-04-14T04:22:09.097Z,2.31
2023-04-14T04:24:40.788Z,2.28
2023-04-14T04:27:27.103Z,2.25
2023-04-14T04:29:59.450Z,2.22
2023-04-14T04:32:29.289Z,2.22
2023-04-14T04:35:00.492Z,2.21
2023-04-14T04:37:29.419Z,2.18
2023-04-14T04:39:59.116Z,2.13
2023-04-14T04:42:28.587Z,2.10
2023-04-14T04:44:57.576Z,2.08
2023-04-14T04:47:26.234Z,2.06
2023-04-14T04:49:54.526Z,2.05
2023-04-14T04:52:27.660Z,2.03
2023-04-14T04:54:56.278Z,1.98
2023-04-14T04:57:24.659Z,1.94
2023-04-14T04:59:52.867Z,1.95
2023-04-14T05:02:21.797Z,1.94
2023-04-14T05:04:50.828Z,1.90
2023-04-14T05:07:19.823Z,1.87
2023-04-14T05:09:49.604Z,1.83
2023-04-14T05:12:18.134Z,1.78
2023-04-14T05:14:46.931Z,1.77
2023-04-14T05:17:15.796Z,1.76
2023-04-14T05:19:44.097Z,1.72
2023-04-14T05:22:13.093Z,1.64
2023-04-14T05:24:41.658Z,1.63
2023-04-14T05:27:14.591Z,1.64
2023-04-14T05:29:43.218Z,1.63
2023-04-14T05:32:13.154Z,1.61
2023-04-14T05:34:42.064Z,1.60
2023-04-14T05:37:10.978Z,1.58
2023-04-14T05:39:39.367Z,1.55
2023-04-14T05:42:07.666Z,1.51
2023-04-14T05:44:37.778Z,1.50
2023-04-14T05:47:06.339Z,1.49
2023-04-14T05:49:34.620Z,1.49
2023-04-14T05:52:02.763Z,1.49
2023-04-14T05:54:31.160Z,1.51
2023-04-14T05:56:59.655Z,1.54
2023-04-14T05:59:28.203Z,1.57
2023-04-14T06:01:57.904Z,1.63
2023-04-14T06:04:26.498Z,1.68
2023-04-14T06:06:55.151Z,1.76
2023-04-14T06:09:23.607Z,1.82
2023-04-14T06:11:52.429Z,1.86
2023-04-14T06:14:20.990Z,1.94
2023-04-14T06:16:51.150Z,1.99
2023-04-14T06:19:21.010Z,2.04
2023-04-14T06:21:49.306Z,2.14
2023-04-14T06:24:17.346Z,2.22
2023-04-14T06:26:45.591Z,2.37
2023-04-14T06:29:14.366Z,2.58
2023-04-14T06:31:42.881Z,2.79
2023-04-14T06:34:11.683Z,3.16
2023-04-14T06:36:41.573Z,3.63
2023-04-14T06:39:09.895Z,4.11
2023-04-14T06:41:38.042Z,4.52
2023-04-14T06:44:06.178Z,4.97
2023-04-14T06:46:36.146Z,5.32
2023-04-14T06:49:04.798Z,5.68
2023-04-14T06:51:34.707Z,5.92
2023-04-14T06:54:04.691Z,6.21
2023-04-14T06:56:33.113Z,6.57
2023-04-14T06:59:01.349Z,6.99
2023-04-14T07:01:29.811Z,7.36
2023-04-14T07:03:58.588Z,7.66
2023-04-14T07:06:27.028Z,7.85
2023-04-14T07:08:56.391Z,8.10
2023-04-14T07:11:26.323Z,8.44
2023-04-14T07:13:54.628Z,8.66
2023-04-14T07:16:22.943Z,8.86
2023-04-14T07:18:51.126Z,8.89
2023-04-14T07:21:19.652Z,9.42
2023-04-14T07:23:48.082Z,9.73
2023-04-14T07:26:16.705Z,10.09
2023-04-14T07:28:46.378Z,10.32
2023-04-14T07:31:14.772Z,10.63
2023-04-14T07:33:43.178Z,10.65
2023-04-14T07:36:11.869Z,11.02
2023-04-14T07:38:40.584Z,11.42
2023-04-14T07:41:09.477Z,11.86
2023-04-14T07:43:38.873Z,11.71
2023-04-14T07:46:09.743Z,11.81
2023-04-14T07:48:39.888Z,12.05
2023-04-14T07:51:08.946Z,12.36
2023-04-14T07:53:42.417Z,12.79
2023-04-14T07:56:11.142Z,13.25
2023-04-14T07:58:39.477Z,13.13
2023-04-14T08:01:09.124Z,13.24
2023-04-14T08:03:38.165Z,13.52
2023-04-14T08:06:07.548Z,13.75
2023-04-14T08:08:36.067Z,14.19
2023-04-14T08:11:04.294Z,14.20
2023-04-14T08:13:32.488Z,14.36
2023-04-14T08:16:01.165Z,14.50
2023-04-14T08:18:30.975Z,14.45
2023-04-14T08:20:59.303Z,14.59
2023-04-14T08:23:27.730Z,14.53
2023-04-14T08:25:56.036Z,14.33
2023-04-14T08:28:24.761Z,14.38
2023-04-14T08:30:53.202Z,14.71
2023-04-14T08:33:21.558Z,15.27
2023-04-14T08:35:57.881Z,15.44
2023-04-14T08:38:29.338Z,15.64
2023-04-14T08:40:58.338Z,15.85
2023-04-14T08:43:26.629Z,15.76
2023-04-14T08:45:56.723Z,16.22
2023-04-14T08:48:30.691Z,16.40
2023-04-14T08:51:07.914Z,16.48
2023-04-14T08:53:42.985Z,16.66
2023-04-14T08:56:13.289Z,16.80
2023-04-14T08:58:42.028Z,16.65
2023-04-14T09:01:11.497Z,16.83
2023-04-14T09:03:41.108Z,16.72
2023-04-14T09:06:12.156Z,16.85
2023-04-14T09:08:40.564Z,16.40
2023-04-14T09:11:09.148Z,16.30
2023-04-14T09:13:38.282Z,15.81
2023-04-14T09:16:08.124Z,15.89
2023-04-14T09:18:36.828Z,16.52
2023-04-14T09:21:38.218Z,16.89
2023-04-14T09:23:58.576Z,16.90
2023-04-14T09:26:29.063Z,17.24
2023-04-14T09:28:57.476Z,17.52
2023-04-14T09:31:26.335Z,18.24
2023-04-14T09:33:55.127Z,18.70
2023-04-14T09:36:25.167Z,18.87
2023-04-14T09:38:53.924Z,19.30
2023-04-14T09:41:26.186Z,19.68
2023-04-14T09:43:54.963Z,19.97
2023-04-14T09:46:23.764Z,19.58
2023-04-14T09:48:54.015Z,19.41
2023-04-14T09:51:29.674Z,19.69
2023-04-14T09:54:05.366Z,19.99
2023-04-14T09:56:35.589Z,20.52
2023-04-14T09:59:04.431Z,20.89
2023-04-14T10:01:35.030Z,21.49
2023-04-14T10:04:04.120Z,22.17
2023-04-14T10:06:32.658Z,22.40
2023-04-14T10:09:01.651Z,22.42
2023-04-14T10:11:32.866Z,22.68
2023-04-14T10:14:04.884Z,22.39
2023-04-14T10:16:34.738Z,22.59
2023-04-14T10:19:03.895Z,21.52
2023-04-14T10:21:32.905Z,21.16
2023-04-14T10:24:02.948Z,21.19
2023-04-14T10:26:31.950Z,21.48
2023-04-14T10:29:02.552Z,21.83
2023-04-14T10:31:36.054Z,22.11
2023-04-14T10:34:09.258Z,21.63
2023-04-14T10:36:38.571Z,21.90
2023-04-14T10:39:08.150Z,21.81
2023-04-14T10:41:48.112Z,21.10
2023-04-14T10:44:28.591Z,20.80
2023-04-14T10:47:00.351Z,20.89
2023-04-14T10:49:33.914Z,21.37
2023-04-14T10:52:04.019Z,21.02
2023-04-14T10:54:50.437Z,20.80
2023-04-14T10:57:20.199Z,21.09
2023-04-14T10:59:49.363Z,21.66
2023-04-14T11:02:30.687Z,21.84
2023-04-14T11:05:01.077Z,21.56
2023-04-14T11:07:31.461Z,21.22
2023-04-14T11:10:03.594Z,21.45
2023-04-14T11:12:32.053Z,21.07
2023-04-14T11:15:04.853Z,20.71
2023-04-14T11:17:38.924Z,20.12
2023-04-14T11:20:16.173Z,20.57
2023-04-14T11:22:46.086Z,20.73
2023-04-14T11:25:15.993Z,20.04
2023-04-14T11:27:45.065Z,19.98
2023-04-14T11:30:16.599Z,20.34
2023-04-14T11:32:51.673Z,20.86
2023-04-14T11:35:21.266Z,21.89
2023-04-14T11:37:49.701Z,21.96
2023-04-14T11:40:17.840Z,21.65
2023-04-14T11:42:48.189Z,20.81
2023-04-14T11:45:16.813Z,20.37
2023-04-14T11:48:10.213Z,18.99
2023-04-14T11:50:41.516Z,18.65
2023-04-14T11:53:10.873Z,18.24
2023-04-14T11:55:43.677Z,17.61
2023-04-14T11:58:12.572Z,18.53
2023-04-14T12:00:42.254Z,18.81
2023-04-14T12:03:11.208Z,19.06
2023-04-14T12:05:41.429Z,19.47
2023-04-14T12:08:12.164Z,19.43
2023-04-14T12:10:42.354Z,20.03
2023-04-14T12:13:12.025Z,19.95
2023-04-14T12:15:42.409Z,19.47
2023-04-14T12:18:13.949Z,19.01
2023-04-14T12:20:46.479Z,18.45
2023-04-14T12:23:14.866Z,18.16
2023-04-14T12:25:43.453Z,17.03
2023-04-14T12:28:12.770Z,17.12
2023-04-14T12:30:52.733Z,17.41
2023-04-14T12:33:24.072Z,17.87
2023-04-14T12:35:55.019Z,18.50
2023-04-14T12:38:28.221Z,18.65
2023-04-14T12:40:56.806Z,18.42
2023-04-14T12:43:29.246Z,18.11
2023-04-14T12:45:58.366Z,18.05
2023-04-14T12:48:41.747Z,18.59
2023-04-14T12:51:13.214Z,18.71
2023-04-14T12:53:42.731Z,18.68
2023-04-14T12:56:12.326Z,18.38
2023-04-14T12:58:41.935Z,18.38
2023-04-14T13:01:12.031Z,18.01
2023-04-14T13:03:46.466Z,17.98
2023-04-14T13:06:18.129Z,18.23
2023-04-14T13:08:47.582Z,17.66
2023-04-14T13:11:16.776Z,17.59
2023-04-14T13:13:45.850Z,17.44
2023-04-14T13:16:18.253Z,17.55
2023-04-14T13:18:49.838Z,17.73
2023-04-14T13:21:19.727Z,17.55
2023-04-14T13:23:48.430Z,17.42
2023-04-14T13:26:16.949Z,17.15
2023-04-14T13:28:46.106Z,16.56
2023-04-14T13:31:18.435Z,16.70
2023-04-14T13:33:46.880Z,16.64
2023-04-14T13:36:16.867Z,16.87
2023-04-14T13:38:47.373Z,17.14
2023-04-14T13:41:18.775Z,17.33
2023-04-14T13:43:48.413Z,17.50
2023-04-14T13:46:18.975Z,17.70
2023-04-14T13:48:47.773Z,17.89
2023-04-14T13:51:17.515Z,18.10
2023-04-14T13:53:49.466Z,18.34
2023-04-14T13:56:18.498Z,18.34
2023-04-14T13:58:47.141Z,18.62
2023-04-14T14:01:15.702Z,18.56
2023-04-14T14:03:44.017Z,18.57
2023-04-14T14:06:12.586Z,18.60
2023-04-14T14:08:42.366Z,18.36
2023-04-14T14:11:12.641Z,17.71
2023-04-14T14:13:41.583Z,17.51
2023-04-14T14:16:10.636Z,17.51
2023-04-14T14:18:39.126Z,16.89
2023-04-14T14:21:07.314Z,16.34
2023-04-14T14:23:35.840Z,15.81
2023-04-14T14:26:04.175Z,15.07
2023-04-14T14:28:33.835Z,14.21
2023-04-14T14:31:03.030Z,13.60
2023-04-14T14:33:32.867Z,13.08
2023-04-14T14:36:01.226Z,12.81
2023-04-14T14:38:29.526Z,12.37
2023-04-14T14:40:58.198Z,11.79
2023-04-14T14:43:26.827Z,11.37
2023-04-14T14:45:56.624Z,11.04
2023-04-14T14:48:25.567Z,11.08
2023-04-14T14:50:53.955Z,11.31
2023-04-14T14:53:22.153Z,11.63
2023-04-14T14:55:50.479Z,11.95
2023-04-14T14:58:18.765Z,12.10
2023-04-14T15:00:47.854Z,12.21
2023-04-14T15:03:17.860Z,12.23
2023-04-14T15:05:46.565Z,12.41
2023-04-14T15:08:14.637Z,12.48
2023-04-14T15:10:42.915Z,12.31
2023-04-14T15:13:12.431Z,12.18
2023-04-14T15:15:40.854Z,12.14
2023-04-14T15:18:10.271Z,12.19
2023-04-14T15:20:42.349Z,12.16
2023-04-14T15:23:10.731Z,12.03
2023-04-14T15:25:39.046Z,12.10
2023-04-14T15:28:07.445Z,12.20
2023-04-14T15:30:35.605Z,12.26
2023-04-14T15:33:04.962Z,12.39
2023-04-14T15:35:37.096Z,12.52
2023-04-14T15:38:07.707Z,12.71
2023-04-14T15:40:36.438Z,12.82
2023-04-14T15:43:04.745Z,13.02
2023-04-14T15:45:33.175Z,13.07
2023-04-14T15:48:01.845Z,13.07
2023-04-14T15:50:30.322Z,13.27
2023-04-14T15:52:59.062Z,13.26
2023-04-14T15:55:29.357Z,13.35
2023-04-14T15:57:57.994Z,13.40
2023-04-14T16:00:26.493Z,13.48
2023-04-14T16:02:54.892Z,13.50
2023-04-14T16:05:23.049Z,13.62
2023-04-14T16:07:52.603Z,13.65
2023-04-14T16:10:21.294Z,13.59
2023-04-14T16:12:51.140Z,13.39
2023-04-14T16:15:19.598Z,13.46
2023-04-14T16:17:47.970Z,13.07
2023-04-14T16:20:18.046Z,13.09
2023-04-14T16:22:46.931Z,12.53
2023-04-14T16:25:15.624Z,12.65
2023-04-14T16:27:44.049Z,12.56
2023-04-14T16:30:14.461Z,11.82
2023-04-14T16:32:42.911Z,11.70
2023-04-14T16:35:11.966Z,11.40
2023-04-14T16:37:40.639Z,11.31
2023-04-14T16:40:10.100Z,11.18
2023-04-14T16:42:38.445Z,11.07
2023-04-14T16:45:08.922Z,10.80
2023-04-14T16:47:38.650Z,10.83
2023-04-14T16:50:07.928Z,10.71
2023-04-14T16:52:36.262Z,10.63
2023-04-14T16:55:05.176Z,10.59
2023-04-14T16:57:34.109Z,10.52
2023-04-14T17:00:02.938Z,10.54
2023-04-14T17:02:31.371Z,10.64
2023-04-14T17:05:01.610Z,10.77
2023-04-14T17:07:30.811Z,11.03
2023-04-14T17:09:59.473Z,11.19
2023-04-14T17:12:27.879Z,11.37
2023-04-14T17:14:56.476Z,11.44
2023-04-14T17:17:25.090Z,11.66
2023-04-14T17:19:55.044Z,11.70
2023-04-14T17:22:26.044Z,11.81
2023-04-14T17:24:54.717Z,11.88
2023-04-14T17:27:23.288Z,11.82
2023-04-14T17:29:51.484Z,11.73
2023-04-14T17:32:20.300Z,11.58
2023-04-14T17:34:49.576Z,11.51
2023-04-14T17:37:17.851Z,11.40
2023-04-14T17:39:49.257Z,11.19
2023-04-14T17:42:17.624Z,10.88
2023-04-14T17:44:46.158Z,10.65
2023-04-14T17:47:15.673Z,10.60
2023-04-14T17:49:44.141Z,10.40
2023-04-14T17:52:21.513Z,10.33
2023-04-14T17:54:52.472Z,10.23
2023-04-14T17:57:21.109Z,10.24
2023-04-14T17:59:49.499Z,10.14
2023-04-14T18:02:18.153Z,10.10
2023-04-14T18:04:47.325Z,10.18
2023-04-14T18:07:15.665Z,10.19
2023-04-14T18:09:44.292Z,10.26
2023-04-14T18:12:14.273Z,10.36
2023-04-14T18:14:44.679Z,10.35
2023-04-14T18:17:13.039Z,10.36
2023-04-14T18:19:41.414Z,10.35
2023-04-14T18:22:09.777Z,10.30
2023-04-14T18:29:42.794Z,10.05
2023-04-14T18:32:11.237Z,9.98
2023-04-14T18:34:39.660Z,9.87
2023-04-14T18:37:08.170Z,9.76
2023-04-14T18:39:38.790Z,9.61
2023-04-14T18:42:08.661Z,9.56
2023-04-14T18:44:39.419Z,9.40
2023-04-14T18:47:10.838Z,9.33
2023-04-14T18:49:39.746Z,9.21
2023-04-14T18:52:08.954Z,9.11
2023-04-14T18:54:37.231Z,9.08
2023-04-14T18:57:06.297Z,9.02
2023-04-14T18:59:36.279Z,8.96
2023-04-14T19:02:08.051Z,8.93
2023-04-14T19:04:40.178Z,8.86
2023-04-14T19:07:11.272Z,8.77
2023-04-14T19:09:41.778Z,8.73
2023-04-14T19:12:21.686Z,8.65
2023-04-14T19:14:56.069Z,8.58
2023-04-14T19:17:30.899Z,8.52
2023-04-14T19:20:04.755Z,8.42
2023-04-14T19:22:35.215Z,8.35
2023-04-14T19:25:05.661Z,8.28
2023-04-14T19:27:36.448Z,8.19
2023-04-14T19:30:09.416Z,8.07
2023-04-14T19:32:40.129Z,7.96
2023-04-14T19:35:13.634Z,7.86
2023-04-14T19:37:42.149Z,7.78
2023-04-14T19:40:11.072Z,7.71
2023-04-14T19:42:39.650Z,7.64
2023-04-14T19:45:11.172Z,7.60
2023-04-14T19:47:40.749Z,7.53
2023-04-14T19:50:11.779Z,7.49
2023-04-14T19:52:40.500Z,7.43
2023-04-14T19:55:10.795Z,7.38
2023-04-14T19:57:40.039Z,7.37
2023-04-14T20:00:13.088Z,7.32
2023-04-14T20:02:45.429Z,7.27
2023-04-14T20:05:16.761Z,7.22
2023-04-14T20:07:46.147Z,7.17
2023-04-14T20:10:14.767Z,7.12
2023-04-14T20:12:44.566Z,7.09
2023-04-14T20:15:14.294Z,7.01
2023-04-14T20:17:46.432Z,6.94
2023-04-14T20:20:17.250Z,6.87
2023-04-14T20:22:48.350Z,6.82
2023-04-14T20:25:20.667Z,6.73
2023-04-14T20:27:52.149Z,6.67
2023-04-14T20:30:20.527Z,6.59
2023-04-14T20:32:49.030Z,6.49
2023-04-14T20:35:20.269Z,6.42
2023-04-14T20:37:50.298Z,6.35
2023-04-14T20:40:18.992Z,6.27
2023-04-14T20:42:48.943Z,6.19
2023-04-14T20:45:19.886Z,6.12
2023-04-14T20:47:49.259Z,6.05
2023-04-14T20:50:19.075Z,5.98
2023-04-14T20:52:49.640Z,5.90
2023-04-14T20:55:22.553Z,5.81
2023-04-14T20:57:53.073Z,5.74
2023-04-14T21:00:22.874Z,5.69
2023-04-14T21:02:52.798Z,5.64
2023-04-14T21:05:25.589Z,5.61
2023-04-14T21:07:56.616Z,5.54
2023-04-14T21:10:26.419Z,5.52
2023-04-14T21:15:27.879Z,5.48
2023-04-14T21:15:56.160Z,5.45
2023-04-14T21:18:28.960Z,5.40
2023-04-14T21:21:00.266Z,5.38
2023-04-14T21:23:29.239Z,5.32
2023-04-14T21:25:59.966Z,5.29
2023-04-14T21:28:28.324Z,5.27
2023-04-14T21:31:01.257Z,5.21
2023-04-14T21:33:29.891Z,5.15
2023-04-14T21:36:00.519Z,5.11
2023-04-14T21:38:29.598Z,5.03
2023-04-14T21:40:57.984Z,4.94
2023-04-14T21:43:26.349Z,4.88
2023-04-14T21:45:55.171Z,4.83
2023-04-14T21:48:23.590Z,4.78
2023-04-14T21:50:52.052Z,4.76
2023-04-14T21:53:21.956Z,4.70
2023-04-14T21:56:09.249Z,4.65
2023-04-14T21:58:39.452Z,4.59
2023-04-14T22:01:09.793Z,4.53
2023-04-14T22:03:40.684Z,4.48
2023-04-14T22:06:11.558Z,4.43
2023-04-14T22:08:42.257Z,4.38
2023-04-14T22:11:10.614Z,4.28
2023-04-14T22:13:38.708Z,4.26
2023-04-14T22:16:07.224Z,4.21
2023-04-14T22:18:37.198Z,4.15
2023-04-14T22:21:05.817Z,4.13
2023-04-14T22:23:34.253Z,4.09
2023-04-14T22:26:03.773Z,4.05
2023-04-14T22:28:32.036Z,3.97
2023-04-14T22:31:00.207Z,3.95
2023-04-14T22:33:28.589Z,3.92
2023-04-14T22:35:57.002Z,3.83
2023-04-14T22:38:25.246Z,3.79
2023-04-14T22:40:53.551Z,3.70
2023-04-14T22:43:23.424Z,3.61
2023-04-14T22:45:52.581Z,3.52
2023-04-14T22:48:21.086Z,3.44
2023-04-14T22:50:49.586Z,3.34
2023-04-14T22:53:17.872Z,3.20
2023-04-14T22:55:45.952Z,3.13
2023-04-14T22:58:17.046Z,2.97
2023-04-14T23:00:47.911Z,2.80
2023-04-14T23:03:16.777Z,2.72
2023-04-14T23:05:45.698Z,2.64
2023-04-14T23:08:14.082Z,2.59
2023-04-14T23:10:42.611Z,2.53
2023-04-14T23:13:10.889Z,2.46
2023-04-14T23:15:39.071Z,2.40
2023-04-14T23:18:09.459Z,2.32
2023-04-14T23:20:38.753Z,2.25
2023-04-14T23:23:12.169Z,2.19
2023-04-14T23:25:40.796Z,2.19
2023-04-14T23:28:10.098Z,2.25
2023-04-14T23:30:38.569Z,2.31
2023-04-14T23:33:08.628Z,2.33
2023-04-14T23:35:38.864Z,2.35
2023-04-14T23:38:07.317Z,2.35
2023-04-14T23:40:36.610Z,2.37
2023-04-14T23:43:05.208Z,2.36
2023-04-14T23:45:37.464Z,2.34
2023-04-14T23:48:06.716Z,2.34
2023-04-14T23:50:58.815Z,2.29
2023-04-14T23:53:25.356Z,2.22
2023-04-14T23:55:53.999Z,2.16
2023-04-14T23:58:26.853Z,2.09
